Time;durP1;ratioP1;P1;durP2;ratioP2;P2;SDS_P1;SDS_P2;PMS_P1;PMS_P2;Temp;Humidity;BMP_temperature;BMP_pressure;BME280_temperature;BME280_humidity;BME280_pressure;Samples;Min_cycle;Max_cycle;Signal;HPM_P1;HPM_P2
2022/01/27 00:00:34;;;;;;;58.00;27.67;;;;;;;;;;4960405;28;20039;-66
2022/01/27 00:05:31;;;;;;;62.55;28.92;;;;;;;;;;4970653;28;20082;-65
2022/01/27 00:12:55;;;;;;;52.25;26.73;;;;;;;;;;4960984;28;20114;-66
2022/01/27 00:15:29;;;;;;;57.42;27.35;;;;;;;;;;4957089;28;20043;-65
2022/01/27 00:18:02;;;;;;;60.35;28.65;;;;;;;;;;4964359;28;20023;-65
2022/01/27 00:20:28;;;;;;;53.80;27.48;;;;;;;;;;4956148;28;20035;-66
2022/01/27 00:22:55;;;;;;;55.33;26.98;;;;;;;;;;4956529;28;20085;-66
2022/01/27 00:25:21;;;;;;;51.72;25.95;;;;;;;;;;4963172;28;20138;-66
2022/01/27 00:27:47;;;;;;;48.20;26.00;;;;;;;;;;4970124;28;20547;-65
2022/01/27 00:30:13;;;;;;;53.85;26.80;;;;;;;;;;4966714;28;20043;-66
2022/01/27 00:32:39;;;;;;;52.42;27.38;;;;;;;;;;4961990;28;20039;-66
2022/01/27 00:35:06;;;;;;;56.33;26.20;;;;;;;;;;4963664;28;20086;-66
2022/01/27 00:37:32;;;;;;;51.40;25.33;;;;;;;;;;4983406;28;20119;-66
2022/01/27 00:39:58;;;;;;;47.05;25.20;;;;;;;;;;4958041;28;20031;-66
2022/01/27 00:42:26;;;;;;;49.55;26.33;;;;;;;;;;4971713;28;20038;-66
2022/01/27 00:44:52;;;;;;;51.88;26.33;;;;;;;;;;4959410;28;20038;-66
2022/01/27 00:47:18;;;;;;;53.08;26.48;;;;;;;;;;4973403;28;20409;-66
2022/01/27 00:49:45;;;;;;;52.72;24.73;;;;;;;;;;4962222;28;20174;-66
2022/01/27 00:52:15;;;;;;;52.00;26.27;;;;;;;;;;4957205;28;20492;-66
2022/01/27 00:54:42;;;;;;;54.22;26.15;;;;;;;;;;4970428;28;20210;-66
2022/01/27 00:57:22;;;;;;;57.50;27.33;;;;;;;;;;4999426;28;20132;-65
2022/01/27 00:59:59;;;;;;;54.45;27.15;;;;;;;;;;4967786;28;20027;-66
2022/01/27 01:02:43;;;;;;;53.25;26.77;;;;;;;;;;4967170;28;20512;-68
2022/01/27 01:05:29;;;;;;;52.20;24.40;;;;;;;;;;4963459;28;20054;-66
2022/01/27 01:08:02;;;;;;;48.85;24.90;;;;;;;;;;4961599;28;20075;-66
2022/01/27 01:15:46;;;;;;;46.53;25.48;;;;;;;;;;4963563;28;20035;-66
2022/01/27 01:33:58;;;;;;;58.25;26.73;;;;;;;;;;4958845;28;20509;-66
2022/01/27 01:36:43;;;;;;;49.33;24.77;;;;;;;;;;4960263;28;20078;-66
2022/01/27 01:39:10;;;;;;;53.67;25.50;;;;;;;;;;4955441;28;20024;-65
2022/01/27 01:41:36;;;;;;;52.80;26.33;;;;;;;;;;4969295;28;20102;-66
2022/01/27 01:44:02;;;;;;;56.53;25.27;;;;;;;;;;4969975;28;20363;-68
2022/01/27 01:46:29;;;;;;;59.15;27.38;;;;;;;;;;4960401;28;20454;-66
2022/01/27 01:48:55;;;;;;;46.05;24.42;;;;;;;;;;4979370;28;20042;-66
2022/01/27 01:51:26;;;;;;;51.83;26.75;;;;;;;;;;4961802;28;20085;-66
2022/01/27 01:53:53;;;;;;;57.17;26.42;;;;;;;;;;4961957;28;20034;-67
2022/01/27 01:56:19;;;;;;;52.85;26.40;;;;;;;;;;4973171;28;20031;-66
2022/01/27 01:58:45;;;;;;;55.08;27.02;;;;;;;;;;4964957;28;20023;-66
2022/01/27 02:01:11;;;;;;;52.67;24.60;;;;;;;;;;4966325;28;20066;-65
2022/01/27 02:03:37;;;;;;;52.83;26.27;;;;;;;;;;4963561;28;20063;-66
2022/01/27 02:06:04;;;;;;;58.65;27.52;;;;;;;;;;4967295;28;20058;-66
2022/01/27 02:19:25;;;;;;;53.65;26.38;;;;;;;;;;4957374;28;20110;-67
2022/01/27 02:21:53;;;;;;;59.25;28.80;;;;;;;;;;4969840;28;20057;-67
2022/01/27 02:24:19;;;;;;;59.85;27.83;;;;;;;;;;4955818;28;20041;-67
2022/01/27 02:26:48;;;;;;;53.97;28.00;;;;;;;;;;4957923;28;20142;-68
2022/01/27 02:29:15;;;;;;;57.22;28.02;;;;;;;;;;4968283;28;20062;-67
2022/01/27 02:31:41;;;;;;;54.63;28.75;;;;;;;;;;4955502;28;20151;-67
2022/01/27 02:34:07;;;;;;;55.92;28.48;;;;;;;;;;4963381;28;20601;-67
2022/01/27 02:36:33;;;;;;;67.15;30.73;;;;;;;;;;4961118;28;20030;-65
2022/01/27 02:39:00;;;;;;;61.58;28.23;;;;;;;;;;4953325;28;20042;-67
2022/01/27 02:41:28;;;;;;;55.70;27.10;;;;;;;;;;4966120;28;20034;-66
2022/01/27 02:43:56;;;;;;;60.65;28.30;;;;;;;;;;4969667;28;20031;-66
2022/01/27 02:46:26;;;;;;;57.38;27.35;;;;;;;;;;4959387;28;20420;-66
2022/01/27 02:48:52;;;;;;;59.45;28.35;;;;;;;;;;4961395;28;20058;-66
2022/01/27 02:51:18;;;;;;;63.90;28.63;;;;;;;;;;4957401;28;20035;-66
2022/01/27 02:53:45;;;;;;;61.55;28.38;;;;;;;;;;4977144;28;20157;-67
2022/01/27 02:56:11;;;;;;;54.85;26.48;;;;;;;;;;4954160;28;20031;-67
2022/01/27 02:58:37;;;;;;;56.50;27.48;;;;;;;;;;4957540;28;20074;-67
2022/01/27 03:01:04;;;;;;;54.33;25.90;;;;;;;;;;4958006;28;20046;-67
2022/01/27 03:03:30;;;;;;;58.60;27.90;;;;;;;;;;4960972;28;20058;-67
2022/01/27 03:05:56;;;;;;;49.72;27.08;;;;;;;;;;4958435;28;20117;-66
2022/01/27 03:08:22;;;;;;;58.15;27.90;;;;;;;;;;4961729;28;20110;-66
2022/01/27 03:10:59;;;;;;;59.78;28.50;;;;;;;;;;4957355;28;20485;-67
2022/01/27 03:13:28;;;;;;;52.88;27.08;;;;;;;;;;4958314;28;20027;-66
2022/01/27 03:15:54;;;;;;;51.53;26.63;;;;;;;;;;4963140;28;20030;-66
2022/01/27 03:18:20;;;;;;;61.13;26.92;;;;;;;;;;4968739;28;20050;-67
2022/01/27 03:20:46;;;;;;;50.30;26.27;;;;;;;;;;4963783;28;20035;-67
2022/01/27 03:23:12;;;;;;;56.72;25.80;;;;;;;;;;4967790;28;20026;-66
2022/01/27 03:25:38;;;;;;;55.20;25.35;;;;;;;;;;4951858;28;20516;-65
2022/01/27 03:28:08;;;;;;;54.78;25.63;;;;;;;;;;4952501;28;20054;-66
2022/01/27 03:30:34;;;;;;;53.72;25.10;;;;;;;;;;4970584;28;20381;-67
2022/01/27 03:33:00;;;;;;;59.83;25.90;;;;;;;;;;4966188;28;20055;-66
2022/01/27 03:35:26;;;;;;;51.10;25.15;;;;;;;;;;4951925;28;20053;-65
2022/01/27 03:37:52;;;;;;;53.90;24.30;;;;;;;;;;4978618;28;20035;-66
2022/01/27 03:40:18;;;;;;;66.03;26.95;;;;;;;;;;4957229;28;20039;-67
2022/01/27 03:42:50;;;;;;;65.60;28.27;;;;;;;;;;4962075;28;20126;-67
2022/01/27 03:45:16;;;;;;;54.92;25.90;;;;;;;;;;4956191;28;20031;-67
2022/01/27 03:47:43;;;;;;;57.63;26.58;;;;;;;;;;4957233;28;20027;-68
2022/01/27 03:50:09;;;;;;;60.42;25.80;;;;;;;;;;4961371;28;20432;-66
2022/01/27 03:52:35;;;;;;;51.72;24.88;;;;;;;;;;4962267;28;20050;-67
2022/01/27 03:55:01;;;;;;;58.33;26.88;;;;;;;;;;4955409;28;20534;-66
2022/01/27 03:57:27;;;;;;;53.58;26.23;;;;;;;;;;4960354;28;20141;-65
2022/01/27 03:59:53;;;;;;;55.78;25.40;;;;;;;;;;4972178;28;20039;-66
2022/01/27 04:02:19;;;;;;;62.83;26.15;;;;;;;;;;4956316;28;20035;-67
2022/01/27 04:04:45;;;;;;;53.03;25.92;;;;;;;;;;4967506;28;20038;-67
2022/01/27 04:07:11;;;;;;;53.20;25.77;;;;;;;;;;4960585;28;20046;-65
2022/01/27 04:09:37;;;;;;;54.67;25.33;;;;;;;;;;4966325;28;20058;-66
2022/01/27 04:12:04;;;;;;;59.03;26.05;;;;;;;;;;4962157;28;20031;-66
2022/01/27 04:14:30;;;;;;;50.80;24.63;;;;;;;;;;4965607;28;20054;-66
2022/01/27 04:16:56;;;;;;;58.85;26.48;;;;;;;;;;4962460;28;20042;-66
2022/01/27 04:19:22;;;;;;;62.78;27.73;;;;;;;;;;4961270;28;20036;-67
2022/01/27 04:21:48;;;;;;;62.58;27.33;;;;;;;;;;4960445;28;20023;-66
2022/01/27 04:24:16;;;;;;;57.05;26.15;;;;;;;;;;4969512;28;20501;-66
2022/01/27 04:26:47;;;;;;;60.10;26.67;;;;;;;;;;4968405;28;20142;-66
2022/01/27 04:29:15;;;;;;;65.03;28.65;;;;;;;;;;4975470;28;20039;-66
2022/01/27 04:31:42;;;;;;;60.25;27.42;;;;;;;;;;4966697;28;20086;-66
2022/01/27 04:34:11;;;;;;;62.60;25.60;;;;;;;;;;4962585;28;20294;-67
2022/01/27 04:36:38;;;;;;;53.55;25.63;;;;;;;;;;4959886;28;20031;-67
2022/01/27 04:44:32;;;;;;;56.72;25.98;;;;;;;;;;4961437;28;20038;-66
2022/01/27 04:47:00;;;;;;;52.85;25.52;;;;;;;;;;4958298;28;20039;-66
2022/01/27 04:49:27;;;;;;;56.15;25.85;;;;;;;;;;4960279;28;20024;-66
2022/01/27 04:51:53;;;;;;;60.17;26.00;;;;;;;;;;4961620;28;20328;-66
2022/01/27 04:57:05;;;;;;;54.58;25.80;;;;;;;;;;4966957;28;20097;-66
2022/01/27 04:59:37;;;;;;;62.47;27.58;;;;;;;;;;4966670;28;20035;-68
2022/01/27 05:02:09;;;;;;;65.63;24.38;;;;;;;;;;4967338;28;20031;-66
2022/01/27 05:04:41;;;;;;;66.28;26.52;;;;;;;;;;4968435;28;20521;-66
2022/01/27 05:07:07;;;;;;;56.80;25.13;;;;;;;;;;4968724;28;20027;-65
2022/01/27 05:09:33;;;;;;;57.20;25.83;;;;;;;;;;4957190;28;20059;-66
2022/01/27 05:12:11;;;;;;;60.72;25.63;;;;;;;;;;4966268;28;20031;-65
2022/01/27 05:14:37;;;;;;;58.13;25.83;;;;;;;;;;4966793;28;20046;-67
2022/01/27 05:17:03;;;;;;;57.60;27.00;;;;;;;;;;4975574;28;20055;-67
2022/01/27 05:19:29;;;;;;;57.47;25.05;;;;;;;;;;4961083;28;20393;-66
2022/01/27 05:21:55;;;;;;;59.58;24.95;;;;;;;;;;4993698;28;20093;-66
2022/01/27 05:24:21;;;;;;;63.47;24.98;;;;;;;;;;4957917;28;20500;-66
2022/01/27 05:26:48;;;;;;;59.22;25.33;;;;;;;;;;4967936;28;20027;-66
2022/01/27 05:29:14;;;;;;;47.70;22.50;;;;;;;;;;4964092;28;20027;-65
2022/01/27 05:31:40;;;;;;;52.50;23.60;;;;;;;;;;4956469;28;20544;-65
2022/01/27 05:34:06;;;;;;;57.75;23.30;;;;;;;;;;4965533;28;20027;-68
2022/01/27 05:36:36;;;;;;;60.45;23.65;;;;;;;;;;4989062;28;20484;-65
2022/01/27 05:39:03;;;;;;;61.50;23.60;;;;;;;;;;4955269;28;20042;-65
2022/01/27 05:41:29;;;;;;;55.63;23.40;;;;;;;;;;4965155;28;20023;-66
2022/01/27 05:43:55;;;;;;;49.58;21.80;;;;;;;;;;4962262;28;20492;-66
2022/01/27 05:46:22;;;;;;;53.17;20.88;;;;;;;;;;4966529;28;20043;-66
2022/01/27 05:48:48;;;;;;;54.50;19.73;;;;;;;;;;4960833;28;20039;-66
2022/01/27 05:51:14;;;;;;;62.05;20.67;;;;;;;;;;4967786;28;20031;-65
2022/01/27 05:53:40;;;;;;;47.60;18.83;;;;;;;;;;4959961;28;20026;-66
2022/01/27 05:56:06;;;;;;;47.80;19.98;;;;;;;;;;4961482;28;20038;-67
2022/01/27 05:58:32;;;;;;;46.80;16.85;;;;;;;;;;4957546;28;20027;-66
2022/01/27 06:00:58;;;;;;;42.60;16.80;;;;;;;;;;4967710;28;20057;-66
2022/01/27 06:03:24;;;;;;;51.42;16.95;;;;;;;;;;4960256;28;20051;-68
2022/01/27 06:05:50;;;;;;;49.25;16.05;;;;;;;;;;4962715;28;20041;-66
2022/01/27 06:08:16;;;;;;;42.95;17.02;;;;;;;;;;4964119;28;20028;-68
2022/01/27 06:10:42;;;;;;;47.53;15.82;;;;;;;;;;4957286;28;20053;-66
2022/01/27 06:13:08;;;;;;;42.65;15.10;;;;;;;;;;4961820;28;20031;-67
2022/01/27 06:15:34;;;;;;;38.38;14.90;;;;;;;;;;4958095;28;20047;-67
2022/01/27 06:18:00;;;;;;;54.92;16.40;;;;;;;;;;4958878;28;20027;-67
2022/01/27 06:20:31;;;;;;;47.90;16.33;;;;;;;;;;4959079;28;20035;-67
2022/01/27 06:22:57;;;;;;;42.53;14.75;;;;;;;;;;4972893;28;20484;-67
2022/01/27 06:25:24;;;;;;;40.45;15.73;;;;;;;;;;4965178;28;20496;-67
2022/01/27 06:27:50;;;;;;;41.60;14.70;;;;;;;;;;4958499;28;20038;-67
2022/01/27 06:30:16;;;;;;;51.72;14.98;;;;;;;;;;4963495;28;20034;-68
2022/01/27 06:32:42;;;;;;;42.47;15.38;;;;;;;;;;4956014;28;20111;-68
2022/01/27 06:35:09;;;;;;;43.75;15.15;;;;;;;;;;4961379;28;20120;-66
2022/01/27 06:37:36;;;;;;;45.40;15.57;;;;;;;;;;4964527;28;20033;-67
2022/01/27 06:40:03;;;;;;;38.90;14.23;;;;;;;;;;4957003;28;20041;-68
2022/01/27 06:42:29;;;;;;;45.20;16.35;;;;;;;;;;4960430;28;20034;-67
2022/01/27 06:44:55;;;;;;;42.92;16.27;;;;;;;;;;4957043;28;20046;-67
2022/01/27 06:47:21;;;;;;;60.42;17.38;;;;;;;;;;4953463;28;20118;-67
2022/01/27 06:49:47;;;;;;;45.22;15.68;;;;;;;;;;4956478;28;20038;-68
2022/01/27 06:52:13;;;;;;;54.90;16.98;;;;;;;;;;4963216;28;20446;-68
2022/01/27 06:54:39;;;;;;;46.13;17.05;;;;;;;;;;4963025;28;20058;-67
2022/01/27 06:57:06;;;;;;;46.78;19.08;;;;;;;;;;4960392;28;20035;-67
2022/01/27 06:59:32;;;;;;;46.10;18.17;;;;;;;;;;4962160;28;20038;-67
2022/01/27 07:01:58;;;;;;;65.45;18.45;;;;;;;;;;4965106;28;20031;-66
2022/01/27 07:04:24;;;;;;;58.13;20.75;;;;;;;;;;4962517;28;20493;-66
2022/01/27 07:06:52;;;;;;;59.63;20.95;;;;;;;;;;4962632;28;20023;-67
2022/01/27 07:09:18;;;;;;;64.35;19.95;;;;;;;;;;4962146;28;20130;-66
2022/01/27 07:11:44;;;;;;;70.18;21.33;;;;;;;;;;4958093;28;20039;-66
2022/01/27 07:14:11;;;;;;;69.93;22.98;;;;;;;;;;4964180;28;20041;-67
2022/01/27 07:16:38;;;;;;;67.75;22.02;;;;;;;;;;4955886;28;20023;-66
2022/01/27 07:19:04;;;;;;;66.78;22.55;;;;;;;;;;4951818;28;20114;-66
2022/01/27 07:21:30;;;;;;;65.10;23.77;;;;;;;;;;4964224;28;20031;-65
2022/01/27 07:23:56;;;;;;;70.07;23.63;;;;;;;;;;4964349;28;20089;-66
2022/01/27 07:26:25;;;;;;;65.60;23.17;;;;;;;;;;4965099;28;20031;-67
2022/01/27 07:28:55;;;;;;;74.97;24.13;;;;;;;;;;4961827;28;20031;-66
2022/01/27 07:31:21;;;;;;;76.05;24.83;;;;;;;;;;4970409;28;20046;-67
2022/01/27 07:33:48;;;;;;;90.47;27.50;;;;;;;;;;4969847;28;20073;-66
2022/01/27 07:36:17;;;;;;;68.35;24.52;;;;;;;;;;4964575;28;20047;-66
2022/01/27 07:38:44;;;;;;;80.47;25.73;;;;;;;;;;4971524;28;20035;-67
2022/01/27 07:41:13;;;;;;;65.47;25.27;;;;;;;;;;4966633;28;20090;-67
2022/01/27 07:43:40;;;;;;;70.47;25.75;;;;;;;;;;4970536;28;20480;-66
2022/01/27 07:46:06;;;;;;;73.45;24.65;;;;;;;;;;4962191;28;20151;-66
2022/01/27 07:48:32;;;;;;;90.75;26.60;;;;;;;;;;4968041;28;20042;-66
2022/01/27 07:51:01;;;;;;;77.10;26.50;;;;;;;;;;4971755;28;20031;-67
2022/01/27 07:53:27;;;;;;;72.13;26.25;;;;;;;;;;4968119;28;20031;-67
2022/01/27 07:55:53;;;;;;;98.57;27.80;;;;;;;;;;4964551;28;20022;-67
2022/01/27 07:58:19;;;;;;;70.18;25.60;;;;;;;;;;4959566;28;20515;-67
2022/01/27 08:00:45;;;;;;;79.45;26.50;;;;;;;;;;4970741;28;20023;-67
2022/01/27 08:03:11;;;;;;;78.88;27.08;;;;;;;;;;4953601;28;20118;-68
2022/01/27 08:05:37;;;;;;;74.95;25.38;;;;;;;;;;4977413;28;20452;-67
2022/01/27 08:08:03;;;;;;;76.60;26.70;;;;;;;;;;4966091;28;20089;-66
2022/01/27 08:10:36;;;;;;;77.63;25.33;;;;;;;;;;4954918;28;20035;-68
2022/01/27 08:13:03;;;;;;;74.95;26.55;;;;;;;;;;4954644;28;20554;-68
2022/01/27 08:15:29;;;;;;;74.25;26.48;;;;;;;;;;4957819;28;20059;-67
2022/01/27 08:17:55;;;;;;;66.93;25.35;;;;;;;;;;4965101;28;20038;-68
2022/01/27 08:20:21;;;;;;;72.10;25.50;;;;;;;;;;4960094;28;20043;-66
2022/01/27 08:22:50;;;;;;;67.25;24.83;;;;;;;;;;4955189;28;20081;-66
2022/01/27 08:25:16;;;;;;;73.53;23.50;;;;;;;;;;4972469;28;20039;-67
2022/01/27 08:27:45;;;;;;;65.50;24.25;;;;;;;;;;4954423;28;20032;-67
2022/01/27 08:30:14;;;;;;;69.75;24.05;;;;;;;;;;4954634;28;20122;-66
2022/01/27 08:32:57;;;;;;;59.13;22.45;;;;;;;;;;4957510;28;20031;-66
2022/01/27 08:35:24;;;;;;;54.00;21.52;;;;;;;;;;4957199;28;20035;-67
2022/01/27 08:37:50;;;;;;;57.47;23.08;;;;;;;;;;4968606;28;20028;-66
2022/01/27 08:40:16;;;;;;;57.03;22.10;;;;;;;;;;4958591;28;20045;-65
2022/01/27 08:42:43;;;;;;;62.03;21.55;;;;;;;;;;4973317;28;20417;-66
2022/01/27 08:45:10;;;;;;;55.85;21.20;;;;;;;;;;4988033;28;20103;-66
2022/01/27 08:47:36;;;;;;;53.60;20.30;;;;;;;;;;4971847;28;20126;-66
2022/01/27 08:50:03;;;;;;;49.97;19.55;;;;;;;;;;4971870;28;20511;-66
2022/01/27 08:52:29;;;;;;;58.33;21.23;;;;;;;;;;4964627;28;20094;-66
2022/01/27 08:54:55;;;;;;;55.97;20.25;;;;;;;;;;4953349;28;20035;-68
2022/01/27 08:57:21;;;;;;;59.40;20.25;;;;;;;;;;4957278;28;20053;-66
2022/01/27 08:59:49;;;;;;;51.55;20.15;;;;;;;;;;4953126;28;20501;-66
2022/01/27 09:02:15;;;;;;;51.90;19.48;;;;;;;;;;4962398;28;20031;-65
2022/01/27 09:04:41;;;;;;;55.22;19.73;;;;;;;;;;4977715;28;20047;-65
2022/01/27 09:07:07;;;;;;;52.83;19.65;;;;;;;;;;4965096;28;20031;-66
2022/01/27 09:09:33;;;;;;;56.38;20.00;;;;;;;;;;4952631;28;20497;-66
2022/01/27 09:12:00;;;;;;;53.97;20.40;;;;;;;;;;4980062;28;20088;-67
2022/01/27 09:14:31;;;;;;;65.80;20.73;;;;;;;;;;4983437;28;20020;-66
2022/01/27 09:16:57;;;;;;;52.53;20.25;;;;;;;;;;4957412;28;20023;-67
2022/01/27 09:19:25;;;;;;;52.70;20.02;;;;;;;;;;4971946;28;20114;-66
2022/01/27 09:21:53;;;;;;;58.30;20.70;;;;;;;;;;4962629;28;20496;-66
2022/01/27 09:24:26;;;;;;;57.90;19.13;;;;;;;;;;4952873;28;20430;-65
2022/01/27 09:26:59;;;;;;;62.38;19.77;;;;;;;;;;4953018;28;20027;-66
2022/01/27 09:29:25;;;;;;;56.00;21.73;;;;;;;;;;4952868;28;20035;-65
2022/01/27 09:31:52;;;;;;;62.65;20.80;;;;;;;;;;4956601;28;20038;-66
2022/01/27 09:34:19;;;;;;;50.42;18.52;;;;;;;;;;4958346;28;20031;-66
2022/01/27 09:36:49;;;;;;;49.05;19.08;;;;;;;;;;4953438;28;20023;-66
2022/01/27 09:39:15;;;;;;;46.85;19.00;;;;;;;;;;4953133;28;20027;-65
2022/01/27 09:41:42;;;;;;;58.28;21.02;;;;;;;;;;4973944;28;20050;-66
2022/01/27 09:44:11;;;;;;;62.45;20.48;;;;;;;;;;4961936;28;20035;-66
2022/01/27 09:46:40;;;;;;;58.33;20.58;;;;;;;;;;4957485;28;20114;-67
2022/01/27 09:49:12;;;;;;;51.08;17.63;;;;;;;;;;4970098;28;20046;-66
2022/01/27 09:51:41;;;;;;;53.75;19.63;;;;;;;;;;4981029;28;20031;-66
2022/01/27 09:54:08;;;;;;;62.78;18.15;;;;;;;;;;4963771;28;20035;-66
2022/01/27 09:56:34;;;;;;;51.47;17.30;;;;;;;;;;4953750;28;20070;-66
2022/01/27 09:59:00;;;;;;;59.30;17.70;;;;;;;;;;4971971;28;20038;-65
2022/01/27 10:01:26;;;;;;;47.55;15.48;;;;;;;;;;4964400;28;20381;-65
2022/01/27 10:03:55;;;;;;;44.53;17.25;;;;;;;;;;4971040;28;20073;-65
2022/01/27 10:06:26;;;;;;;55.08;16.00;;;;;;;;;;4964938;28;20042;-65
2022/01/27 10:09:11;;;;;;;47.85;16.40;;;;;;;;;;4971035;28;20042;-65
2022/01/27 10:11:37;;;;;;;48.35;16.95;;;;;;;;;;4970593;28;20161;-65
2022/01/27 10:14:37;;;;;;;50.33;15.07;;;;;;;;;;4959331;28;20417;-67
2022/01/27 10:17:13;;;;;;;42.13;14.82;;;;;;;;;;4945391;28;20031;-66
2022/01/27 10:19:40;;;;;;;42.67;15.30;;;;;;;;;;4958842;28;20057;-66
2022/01/27 10:22:08;;;;;;;60.85;17.00;;;;;;;;;;4970604;28;20041;-66
2022/01/27 10:24:35;;;;;;;40.88;14.15;;;;;;;;;;4971241;28;20119;-66
2022/01/27 10:27:17;;;;;;;43.38;14.43;;;;;;;;;;4976085;28;20037;-66
2022/01/27 10:32:22;;;;;;;36.45;13.35;;;;;;;;;;4970904;28;20544;-66
2022/01/27 10:34:55;;;;;;;51.88;14.20;;;;;;;;;;4973479;28;20066;-67
2022/01/27 10:37:21;;;;;;;42.67;14.25;;;;;;;;;;4971089;28;20110;-65
2022/01/27 10:39:47;;;;;;;42.72;12.23;;;;;;;;;;4953028;28;20043;-68
2022/01/27 10:42:14;;;;;;;54.20;13.80;;;;;;;;;;4951584;28;20031;-66
2022/01/27 10:44:47;;;;;;;33.90;12.30;;;;;;;;;;4953828;28;20028;-66
2022/01/27 10:47:23;;;;;;;44.85;12.27;;;;;;;;;;4958957;28;20038;-69
2022/01/27 10:50:04;;;;;;;35.65;11.73;;;;;;;;;;4965598;28;20043;-66
2022/01/27 10:52:38;;;;;;;37.17;13.20;;;;;;;;;;4951124;28;20437;-65
2022/01/27 10:55:09;;;;;;;40.20;12.48;;;;;;;;;;4969980;28;20031;-66
2022/01/27 10:57:35;;;;;;;30.48;10.30;;;;;;;;;;4961288;28;20200;-68
2022/01/27 11:00:20;;;;;;;29.75;10.80;;;;;;;;;;4966542;28;20420;-66
2022/01/27 11:03:01;;;;;;;32.10;11.00;;;;;;;;;;4958935;28;20135;-66
2022/01/27 11:05:33;;;;;;;31.90;11.88;;;;;;;;;;4960201;28;20034;-66
2022/01/27 11:08:00;;;;;;;32.85;9.68;;;;;;;;;;4968467;28;20511;-67
2022/01/27 11:10:26;;;;;;;29.05;11.45;;;;;;;;;;4966697;28;20151;-67
2022/01/27 11:12:53;;;;;;;31.63;9.02;;;;;;;;;;4958606;28;20034;-67
2022/01/27 11:15:20;;;;;;;29.40;10.15;;;;;;;;;;4965573;28;20039;-66
2022/01/27 11:17:47;;;;;;;28.90;10.05;;;;;;;;;;4960975;28;20027;-66
2022/01/27 11:20:26;;;;;;;32.55;10.10;;;;;;;;;;4966873;28;20035;-66
2022/01/27 11:27:51;;;;;;;30.20;10.35;;;;;;;;;;4960269;28;20038;-66
2022/01/27 11:30:18;;;;;;;31.85;9.60;;;;;;;;;;4950651;28;20035;-67
2022/01/27 11:33:17;;;;;;;33.47;9.98;;;;;;;;;;4996836;28;20447;-65
2022/01/27 11:35:43;;;;;;;31.85;9.50;;;;;;;;;;4926212;28;20138;-67
2022/01/27 11:38:09;;;;;;;33.83;9.50;;;;;;;;;;4963550;28;20042;-67
2022/01/27 11:40:46;;;;;;;30.27;9.32;;;;;;;;;;4963970;28;20042;-65
2022/01/27 11:43:13;;;;;;;28.30;8.55;;;;;;;;;;4968223;28;20041;-68
2022/01/27 11:45:39;;;;;;;30.65;8.45;;;;;;;;;;4957859;28;20128;-66
2022/01/27 11:48:17;;;;;;;33.80;10.40;;;;;;;;;;4961612;28;20531;-68
2022/01/27 11:50:56;;;;;;;27.23;9.05;;;;;;;;;;4959717;28;20501;-66
2022/01/27 11:53:32;;;;;;;28.33;8.68;;;;;;;;;;4953731;28;20034;-66
2022/01/27 11:55:59;;;;;;;28.73;9.00;;;;;;;;;;4951307;28;20031;-66
2022/01/27 11:58:26;;;;;;;36.83;9.07;;;;;;;;;;4950937;28;20090;-66
2022/01/27 12:01:13;;;;;;;29.33;9.30;;;;;;;;;;4958823;28;20033;-66
2022/01/27 12:03:40;;;;;;;34.13;9.43;;;;;;;;;;4969983;28;20061;-67
2022/01/27 12:06:13;;;;;;;24.85;8.55;;;;;;;;;;4952055;28;20039;-66
2022/01/27 12:08:39;;;;;;;25.55;8.38;;;;;;;;;;4950980;28;20038;-66
2022/01/27 12:11:08;;;;;;;24.77;7.75;;;;;;;;;;4955272;28;20333;-66
2022/01/27 12:13:42;;;;;;;29.23;8.77;;;;;;;;;;4968849;28;20024;-66
2022/01/27 12:16:23;;;;;;;20.05;7.93;;;;;;;;;;4950466;28;20035;-68
2022/01/27 12:19:01;;;;;;;23.93;7.83;;;;;;;;;;4953423;28;20051;-67
2022/01/27 12:21:35;;;;;;;23.67;8.27;;;;;;;;;;4959840;28;20110;-66
2022/01/27 12:24:24;;;;;;;30.60;7.50;;;;;;;;;;4967299;28;20404;-66
2022/01/27 12:26:52;;;;;;;24.55;7.25;;;;;;;;;;4963273;28;20038;-66
2022/01/27 12:29:25;;;;;;;28.13;7.93;;;;;;;;;;4973332;28;20131;-66
2022/01/27 12:31:52;;;;;;;24.73;7.30;;;;;;;;;;4964923;28;20031;-67
2022/01/27 12:34:18;;;;;;;30.15;7.10;;;;;;;;;;4971784;28;20034;-67
2022/01/27 12:37:02;;;;;;;19.50;7.35;;;;;;;;;;4962453;28;20027;-66
2022/01/27 12:39:29;;;;;;;26.02;8.20;;;;;;;;;;4967219;28;20041;-67
2022/01/27 12:41:55;;;;;;;26.52;8.25;;;;;;;;;;4956027;28;20032;-67
2022/01/27 12:44:22;;;;;;;18.83;6.82;;;;;;;;;;4960007;28;20058;-66
2022/01/27 12:47:05;;;;;;;32.10;8.02;;;;;;;;;;4966014;28;20027;-66
2022/01/27 12:49:36;;;;;;;24.13;6.20;;;;;;;;;;4956826;28;20027;-67
2022/01/27 12:52:06;;;;;;;22.88;7.15;;;;;;;;;;4952238;29;20031;-67
2022/01/27 12:54:33;;;;;;;23.80;7.03;;;;;;;;;;4959368;28;20019;-67
2022/01/27 12:56:59;;;;;;;20.95;7.78;;;;;;;;;;4954389;28;20110;-67
2022/01/27 12:59:29;;;;;;;25.08;7.13;;;;;;;;;;4959377;28;20555;-68
2022/01/27 13:01:59;;;;;;;33.60;6.87;;;;;;;;;;4970604;28;20053;-67
2022/01/27 13:04:26;;;;;;;21.05;6.70;;;;;;;;;;4953025;28;20060;-66
2022/01/27 13:06:53;;;;;;;23.83;7.28;;;;;;;;;;4958233;28;20043;-66
2022/01/27 13:09:19;;;;;;;24.20;6.78;;;;;;;;;;4954414;28;20044;-66
2022/01/27 13:11:47;;;;;;;23.95;6.60;;;;;;;;;;4953773;29;20027;-66
2022/01/27 13:14:13;;;;;;;23.15;6.20;;;;;;;;;;4953579;28;20039;-66
2022/01/27 13:16:40;;;;;;;23.27;6.88;;;;;;;;;;4957928;28;20522;-66
2022/01/27 13:19:18;;;;;;;17.73;5.43;;;;;;;;;;4955561;28;20062;-66
2022/01/27 13:21:49;;;;;;;25.02;7.47;;;;;;;;;;4954095;28;20070;-67
2022/01/27 13:24:18;;;;;;;19.08;5.60;;;;;;;;;;4970423;28;20043;-66
2022/01/27 13:26:45;;;;;;;24.55;6.40;;;;;;;;;;4967198;28;20082;-66
2022/01/27 13:29:28;;;;;;;18.30;5.47;;;;;;;;;;4956486;28;20527;-66
2022/01/27 13:31:54;;;;;;;22.50;5.45;;;;;;;;;;4958150;28;20035;-66
2022/01/27 13:34:20;;;;;;;21.90;6.70;;;;;;;;;;4957063;28;20046;-65
2022/01/27 13:36:59;;;;;;;17.73;5.50;;;;;;;;;;4953309;28;20031;-66
2022/01/27 13:42:11;;;;;;;21.73;6.20;;;;;;;;;;4953774;28;20046;-67
2022/01/27 13:44:50;;;;;;;20.73;6.28;;;;;;;;;;4952934;28;20106;-66
2022/01/27 13:47:23;;;;;;;20.60;4.93;;;;;;;;;;4968829;28;20041;-66
2022/01/27 13:49:50;;;;;;;14.60;5.13;;;;;;;;;;4967279;28;20070;-66
2022/01/27 13:52:17;;;;;;;16.58;4.70;;;;;;;;;;4968922;28;20090;-66
2022/01/27 13:54:44;;;;;;;17.95;4.78;;;;;;;;;;4969928;28;20057;-68
2022/01/27 13:57:17;;;;;;;30.38;6.65;;;;;;;;;;4969444;28;20576;-66
2022/01/27 14:00:00;;;;;;;25.38;5.50;;;;;;;;;;4970176;28;20027;-64
2022/01/27 14:02:31;;;;;;;23.45;5.45;;;;;;;;;;4972189;28;20019;-66
2022/01/27 14:05:01;;;;;;;15.45;5.07;;;;;;;;;;4965235;28;20047;-66
2022/01/27 14:07:31;;;;;;;19.08;4.32;;;;;;;;;;4956430;28;20033;-67
2022/01/27 14:10:10;;;;;;;14.95;5.10;;;;;;;;;;4967505;28;20038;-67
2022/01/27 14:12:48;;;;;;;21.33;4.18;;;;;;;;;;4971652;28;20371;-68
2022/01/27 14:15:27;;;;;;;14.15;4.38;;;;;;;;;;4971644;28;20031;-67
2022/01/27 14:17:57;;;;;;;17.92;4.45;;;;;;;;;;4956550;28;20113;-65
2022/01/27 14:20:23;;;;;;;16.80;3.53;;;;;;;;;;4952930;28;20050;-67
2022/01/27 14:23:02;;;;;;;15.18;4.30;;;;;;;;;;4961312;28;20039;-67
2022/01/27 14:25:37;;;;;;;16.80;4.00;;;;;;;;;;4971175;28;20034;-67
2022/01/27 14:28:10;;;;;;;25.60;4.40;;;;;;;;;;4957495;28;20567;-66
2022/01/27 14:30:37;;;;;;;15.45;3.90;;;;;;;;;;4952625;28;20037;-66
2022/01/27 14:33:02;;;;;;;18.13;4.00;;;;;;;;;;4968631;28;20026;-67
2022/01/27 14:35:29;;;;;;;19.75;5.60;;;;;;;;;;4969032;28;20492;-66
2022/01/27 14:37:57;;;;;;;23.85;3.67;;;;;;;;;;4969117;28;20050;-68
2022/01/27 14:40:24;;;;;;;16.35;3.53;;;;;;;;;;4969849;28;20408;-68
2022/01/27 14:42:51;;;;;;;16.65;4.10;;;;;;;;;;4970838;28;20050;-66
2022/01/27 14:45:18;;;;;;;21.52;3.50;;;;;;;;;;4970665;28;20031;-68
2022/01/27 14:47:48;;;;;;;20.38;4.00;;;;;;;;;;4962059;28;20492;-66
2022/01/27 14:50:16;;;;;;;17.25;3.65;;;;;;;;;;4958822;28;20058;-66
2022/01/27 14:52:43;;;;;;;17.02;3.40;;;;;;;;;;4953150;28;20024;-67
2022/01/27 14:55:13;;;;;;;18.17;3.40;;;;;;;;;;4951858;28;20467;-67
2022/01/27 14:57:39;;;;;;;15.23;2.88;;;;;;;;;;4968068;28;20055;-66
2022/01/27 15:00:06;;;;;;;15.80;3.35;;;;;;;;;;4953495;28;20118;-66
2022/01/27 15:02:32;;;;;;;20.65;3.20;;;;;;;;;;4952058;28;20047;-66
2022/01/27 15:05:00;;;;;;;27.27;3.70;;;;;;;;;;4958771;28;20050;-66
2022/01/27 15:07:26;;;;;;;26.40;3.70;;;;;;;;;;4970839;28;20023;-66
2022/01/27 15:09:52;;;;;;;22.48;3.38;;;;;;;;;;4970461;28;20062;-66
2022/01/27 15:12:18;;;;;;;23.45;2.88;;;;;;;;;;4970891;28;20536;-67
2022/01/27 15:20:13;;;;;;;20.60;3.65;;;;;;;;;;4967529;28;20050;-66
2022/01/27 15:22:39;;;;;;;24.50;3.30;;;;;;;;;;4957780;28;20121;-66
2022/01/27 15:25:06;;;;;;;21.52;3.75;;;;;;;;;;4961197;28;20026;-66
2022/01/27 15:27:32;;;;;;;26.40;4.72;;;;;;;;;;4963567;28;20039;-66
2022/01/27 15:29:58;;;;;;;23.65;3.03;;;;;;;;;;4954580;28;20039;-70
2022/01/27 15:32:24;;;;;;;18.70;2.88;;;;;;;;;;4955453;28;20047;-65